sensor_id;sensor_type;location;lat;lon;timestamp;P1;durP1;ratioP1;P2;durP2;ratioP2
9801;SDS011;4940;50.900;4.672;2022-10-31T00:00:33;17.77;;;11.13;;
9801;SDS011;4940;50.900;4.672;2022-10-31T00:03:00;16.50;;;10.40;;
9801;SDS011;4940;50.900;4.672;2022-10-31T00:05:27;21.15;;;10.30;;
9801;SDS011;4940;50.900;4.672;2022-10-31T00:07:54;19.23;;;10.13;;
9801;SDS011;4940;50.900;4.672;2022-10-31T00:10:21;18.08;;;10.20;;
9801;SDS011;4940;50.900;4.672;2022-10-31T00:12:49;15.27;;;9.65;;
9801;SDS011;4940;50.900;4.672;2022-10-31T00:15:16;16.05;;;9.73;;
9801;SDS011;4940;50.900;4.672;2022-10-31T00:17:45;20.73;;;9.98;;
9801;SDS011;4940;50.900;4.672;2022-10-31T00:20:12;17.98;;;9.63;;
9801;SDS011;4940;50.900;4.672;2022-10-31T00:22:39;18.13;;;9.80;;
9801;SDS011;4940;50.900;4.672;2022-10-31T00:25:06;19.80;;;9.93;;
9801;SDS011;4940;50.900;4.672;2022-10-31T00:27:34;16.83;;;9.93;;
9801;SDS011;4940;50.900;4.672;2022-10-31T00:30:01;19.92;;;10.07;;
9801;SDS011;4940;50.900;4.672;2022-10-31T00:32:28;14.75;;;9.85;;
9801;SDS011;4940;50.900;4.672;2022-10-31T00:34:57;17.05;;;8.93;;
9801;SDS011;4940;50.900;4.672;2022-10-31T00:37:25;19.67;;;9.48;;
9801;SDS011;4940;50.900;4.672;2022-10-31T00:39:52;17.98;;;9.10;;
9801;SDS011;4940;50.900;4.672;2022-10-31T00:42:19;16.77;;;9.57;;
9801;SDS011;4940;50.900;4.672;2022-10-31T00:44:47;21.67;;;9.77;;
9801;SDS011;4940;50.900;4.672;2022-10-31T00:47:14;20.77;;;9.25;;
9801;SDS011;4940;50.900;4.672;2022-10-31T00:49:41;15.50;;;9.07;;
9801;SDS011;4940;50.900;4.672;2022-10-31T00:52:10;19.33;;;9.57;;
9801;SDS011;4940;50.900;4.672;2022-10-31T00:54:37;17.50;;;8.80;;
9801;SDS011;4940;50.900;4.672;2022-10-31T00:57:05;17.80;;;8.40;;
9801;SDS011;4940;50.900;4.672;2022-10-31T00:59:32;17.77;;;9.05;;
9801;SDS011;4940;50.900;4.672;2022-10-31T01:01:59;18.45;;;9.95;;
9801;SDS011;4940;50.900;4.672;2022-10-31T01:04:27;18.70;;;9.57;;
9801;SDS011;4940;50.900;4.672;2022-10-31T01:06:54;16.83;;;8.77;;
9801;SDS011;4940;50.900;4.672;2022-10-31T01:09:22;15.20;;;9.82;;
9801;SDS011;4940;50.900;4.672;2022-10-31T01:11:50;16.50;;;9.13;;
9801;SDS011;4940;50.900;4.672;2022-10-31T01:14:17;14.32;;;9.07;;
9801;SDS011;4940;50.900;4.672;2022-10-31T01:16:44;13.77;;;9.02;;
9801;SDS011;4940;50.900;4.672;2022-10-31T01:19:12;18.90;;;9.05;;
9801;SDS011;4940;50.900;4.672;2022-10-31T01:21:39;18.52;;;9.07;;
9801;SDS011;4940;50.900;4.672;2022-10-31T01:24:07;17.92;;;9.73;;
9801;SDS011;4940;50.900;4.672;2022-10-31T01:26:36;18.60;;;9.70;;
9801;SDS011;4940;50.900;4.672;2022-10-31T01:29:04;21.48;;;10.30;;
9801;SDS011;4940;50.900;4.672;2022-10-31T01:31:33;14.82;;;9.15;;
9801;SDS011;4940;50.900;4.672;2022-10-31T01:34:02;17.33;;;9.18;;
9801;SDS011;4940;50.900;4.672;2022-10-31T01:36:30;15.43;;;8.75;;
9801;SDS011;4940;50.900;4.672;2022-10-31T01:38:59;17.88;;;8.65;;
9801;SDS011;4940;50.900;4.672;2022-10-31T01:41:28;15.43;;;9.10;;
9801;SDS011;4940;50.900;4.672;2022-10-31T01:43:59;15.45;;;8.73;;
9801;SDS011;4940;50.900;4.672;2022-10-31T01:46:29;17.27;;;9.45;;
9801;SDS011;4940;50.900;4.672;2022-10-31T01:49:00;14.73;;;9.32;;
9801;SDS011;4940;50.900;4.672;2022-10-31T01:51:31;17.20;;;10.02;;
9801;SDS011;4940;50.900;4.672;2022-10-31T01:54:02;19.45;;;9.63;;
9801;SDS011;4940;50.900;4.672;2022-10-31T01:56:32;14.65;;;9.10;;
9801;SDS011;4940;50.900;4.672;2022-10-31T01:59:04;14.48;;;9.20;;
9801;SDS011;4940;50.900;4.672;2022-10-31T02:01:34;15.55;;;9.52;;
9801;SDS011;4940;50.900;4.672;2022-10-31T02:04:02;16.27;;;9.50;;
9801;SDS011;4940;50.900;4.672;2022-10-31T02:06:32;19.55;;;9.63;;
9801;SDS011;4940;50.900;4.672;2022-10-31T02:09:03;18.63;;;8.88;;
9801;SDS011;4940;50.900;4.672;2022-10-31T02:11:32;16.63;;;9.10;;
9801;SDS011;4940;50.900;4.672;2022-10-31T02:14:02;17.58;;;9.80;;
9801;SDS011;4940;50.900;4.672;2022-10-31T02:16:30;19.67;;;10.15;;
9801;SDS011;4940;50.900;4.672;2022-10-31T02:18:58;16.40;;;9.52;;
9801;SDS011;4940;50.900;4.672;2022-10-31T02:21:26;23.58;;;9.88;;
9801;SDS011;4940;50.900;4.672;2022-10-31T02:24:12;18.45;;;10.13;;
9801;SDS011;4940;50.900;4.672;2022-10-31T02:27:05;16.63;;;9.30;;
9801;SDS011;4940;50.900;4.672;2022-10-31T02:30:02;16.30;;;9.82;;
9801;SDS011;4940;50.900;4.672;2022-10-31T02:32:40;15.77;;;9.35;;
9801;SDS011;4940;50.900;4.672;2022-10-31T02:35:17;18.10;;;10.52;;
9801;SDS011;4940;50.900;4.672;2022-10-31T02:38:02;20.23;;;10.18;;
9801;SDS011;4940;50.900;4.672;2022-10-31T02:40:35;15.38;;;8.82;;
9801;SDS011;4940;50.900;4.672;2022-10-31T02:43:06;20.48;;;10.57;;
9801;SDS011;4940;50.900;4.672;2022-10-31T02:45:38;16.00;;;9.40;;
9801;SDS011;4940;50.900;4.672;2022-10-31T02:48:14;17.77;;;9.50;;
9801;SDS011;4940;50.900;4.672;2022-10-31T02:50:46;19.35;;;9.10;;
9801;SDS011;4940;50.900;4.672;2022-10-31T02:53:16;18.45;;;9.25;;
9801;SDS011;4940;50.900;4.672;2022-10-31T02:55:51;16.23;;;9.10;;
9801;SDS011;4940;50.900;4.672;2022-10-31T02:58:24;18.73;;;9.00;;
9801;SDS011;4940;50.900;4.672;2022-10-31T03:01:02;18.40;;;9.38;;
9801;SDS011;4940;50.900;4.672;2022-10-31T03:04:10;16.48;;;8.75;;
9801;SDS011;4940;50.900;4.672;2022-10-31T03:06:49;18.33;;;9.00;;
9801;SDS011;4940;50.900;4.672;2022-10-31T03:09:24;14.60;;;9.05;;
9801;SDS011;4940;50.900;4.672;2022-10-31T03:11:56;21.98;;;9.98;;
9801;SDS011;4940;50.900;4.672;2022-10-31T03:14:27;16.23;;;9.38;;
9801;SDS011;4940;50.900;4.672;2022-10-31T03:17:04;17.23;;;9.45;;
9801;SDS011;4940;50.900;4.672;2022-10-31T03:19:36;17.25;;;9.38;;
9801;SDS011;4940;50.900;4.672;2022-10-31T03:22:10;16.27;;;9.02;;
9801;SDS011;4940;50.900;4.672;2022-10-31T03:24:42;16.42;;;8.57;;
9801;SDS011;4940;50.900;4.672;2022-10-31T03:27:10;16.05;;;9.18;;
9801;SDS011;4940;50.900;4.672;2022-10-31T03:29:41;17.58;;;8.65;;
9801;SDS011;4940;50.900;4.672;2022-10-31T03:32:10;16.63;;;9.50;;
9801;SDS011;4940;50.900;4.672;2022-10-31T03:34:41;13.73;;;8.93;;
9801;SDS011;4940;50.900;4.672;2022-10-31T03:37:13;18.25;;;9.48;;
9801;SDS011;4940;50.900;4.672;2022-10-31T03:39:42;18.50;;;9.63;;
9801;SDS011;4940;50.900;4.672;2022-10-31T03:42:12;23.35;;;9.93;;
9801;SDS011;4940;50.900;4.672;2022-10-31T03:44:42;21.02;;;10.15;;
9801;SDS011;4940;50.900;4.672;2022-10-31T03:47:13;19.20;;;10.38;;
9801;SDS011;4940;50.900;4.672;2022-10-31T03:49:41;18.95;;;9.88;;
9801;SDS011;4940;50.900;4.672;2022-10-31T03:52:10;17.23;;;9.23;;
9801;SDS011;4940;50.900;4.672;2022-10-31T03:54:42;18.40;;;10.10;;
9801;SDS011;4940;50.900;4.672;2022-10-31T03:57:13;20.50;;;9.02;;
9801;SDS011;4940;50.900;4.672;2022-10-31T03:59:46;16.70;;;9.45;;
9801;SDS011;4940;50.900;4.672;2022-10-31T04:02:18;13.68;;;8.50;;
9801;SDS011;4940;50.900;4.672;2022-10-31T04:04:50;18.42;;;9.15;;
9801;SDS011;4940;50.900;4.672;2022-10-31T04:07:18;19.40;;;9.38;;
9801;SDS011;4940;50.900;4.672;2022-10-31T04:09:47;19.35;;;9.70;;
9801;SDS011;4940;50.900;4.672;2022-10-31T04:12:16;18.45;;;9.95;;
9801;SDS011;4940;50.900;4.672;2022-10-31T04:14:46;22.33;;;10.23;;
9801;SDS011;4940;50.900;4.672;2022-10-31T04:17:16;21.15;;;8.82;;
9801;SDS011;4940;50.900;4.672;2022-10-31T04:19:46;18.38;;;9.40;;
9801;SDS011;4940;50.900;4.672;2022-10-31T04:22:14;18.83;;;8.93;;
9801;SDS011;4940;50.900;4.672;2022-10-31T04:24:41;18.80;;;9.52;;
9801;SDS011;4940;50.900;4.672;2022-10-31T04:27:09;20.58;;;9.75;;
9801;SDS011;4940;50.900;4.672;2022-10-31T04:29:36;19.02;;;9.70;;
9801;SDS011;4940;50.900;4.672;2022-10-31T04:32:04;18.35;;;9.60;;
9801;SDS011;4940;50.900;4.672;2022-10-31T04:34:31;22.35;;;10.02;;
9801;SDS011;4940;50.900;4.672;2022-10-31T04:36:58;20.65;;;9.45;;
9801;SDS011;4940;50.900;4.672;2022-10-31T04:39:27;17.83;;;9.57;;
9801;SDS011;4940;50.900;4.672;2022-10-31T04:41:54;17.00;;;9.40;;
9801;SDS011;4940;50.900;4.672;2022-10-31T04:44:22;19.75;;;9.27;;
9801;SDS011;4940;50.900;4.672;2022-10-31T04:46:49;18.85;;;10.30;;
9801;SDS011;4940;50.900;4.672;2022-10-31T04:49:16;17.90;;;9.15;;
9801;SDS011;4940;50.900;4.672;2022-10-31T04:51:44;22.20;;;9.80;;
9801;SDS011;4940;50.900;4.672;2022-10-31T04:54:11;20.63;;;10.57;;
9801;SDS011;4940;50.900;4.672;2022-10-31T04:56:39;20.80;;;10.50;;
9801;SDS011;4940;50.900;4.672;2022-10-31T04:59:07;21.73;;;10.10;;
9801;SDS011;4940;50.900;4.672;2022-10-31T05:01:34;18.88;;;10.38;;
9801;SDS011;4940;50.900;4.672;2022-10-31T05:04:02;20.38;;;10.35;;
9801;SDS011;4940;50.900;4.672;2022-10-31T05:06:29;18.40;;;10.15;;
9801;SDS011;4940;50.900;4.672;2022-10-31T05:08:56;21.10;;;10.88;;
9801;SDS011;4940;50.900;4.672;2022-10-31T05:11:24;21.00;;;9.98;;
9801;SDS011;4940;50.900;4.672;2022-10-31T05:13:52;17.58;;;9.43;;
9801;SDS011;4940;50.900;4.672;2022-10-31T05:16:19;25.75;;;10.07;;
9801;SDS011;4940;50.900;4.672;2022-10-31T05:18:47;21.52;;;10.73;;
9801;SDS011;4940;50.900;4.672;2022-10-31T05:21:14;22.15;;;10.48;;
9801;SDS011;4940;50.900;4.672;2022-10-31T05:23:41;18.63;;;9.57;;
9801;SDS011;4940;50.900;4.672;2022-10-31T05:26:09;22.08;;;10.05;;
9801;SDS011;4940;50.900;4.672;2022-10-31T05:28:36;22.45;;;10.30;;
9801;SDS011;4940;50.900;4.672;2022-10-31T05:31:05;17.70;;;9.98;;
9801;SDS011;4940;50.900;4.672;2022-10-31T05:33:32;19.27;;;9.40;;
9801;SDS011;4940;50.900;4.672;2022-10-31T05:35:59;19.30;;;9.98;;
9801;SDS011;4940;50.900;4.672;2022-10-31T05:38:26;25.65;;;9.93;;
9801;SDS011;4940;50.900;4.672;2022-10-31T05:40:54;16.55;;;9.50;;
9801;SDS011;4940;50.900;4.672;2022-10-31T05:43:25;22.73;;;9.48;;
9801;SDS011;4940;50.900;4.672;2022-10-31T05:45:52;19.27;;;10.65;;
9801;SDS011;4940;50.900;4.672;2022-10-31T05:48:21;21.90;;;10.10;;
9801;SDS011;4940;50.900;4.672;2022-10-31T05:50:48;23.05;;;10.32;;
9801;SDS011;4940;50.900;4.672;2022-10-31T05:53:15;22.10;;;10.70;;
9801;SDS011;4940;50.900;4.672;2022-10-31T05:55:43;16.73;;;9.20;;
9801;SDS011;4940;50.900;4.672;2022-10-31T05:58:10;20.05;;;10.48;;
9801;SDS011;4940;50.900;4.672;2022-10-31T06:00:38;20.77;;;9.93;;
9801;SDS011;4940;50.900;4.672;2022-10-31T06:03:05;20.92;;;10.52;;
9801;SDS011;4940;50.900;4.672;2022-10-31T06:05:35;20.30;;;10.82;;
9801;SDS011;4940;50.900;4.672;2022-10-31T06:08:02;20.08;;;11.45;;
9801;SDS011;4940;50.900;4.672;2022-10-31T06:10:30;21.13;;;10.07;;
9801;SDS011;4940;50.900;4.672;2022-10-31T06:12:57;21.42;;;10.77;;
9801;SDS011;4940;50.900;4.672;2022-10-31T06:15:24;17.52;;;9.93;;
9801;SDS011;4940;50.900;4.672;2022-10-31T06:17:59;20.75;;;10.73;;
9801;SDS011;4940;50.900;4.672;2022-10-31T06:20:27;20.33;;;10.95;;
9801;SDS011;4940;50.900;4.672;2022-10-31T06:22:55;24.45;;;11.23;;
9801;SDS011;4940;50.900;4.672;2022-10-31T06:25:23;22.33;;;11.13;;
9801;SDS011;4940;50.900;4.672;2022-10-31T06:27:50;27.05;;;11.73;;
9801;SDS011;4940;50.900;4.672;2022-10-31T06:30:17;18.02;;;10.60;;
9801;SDS011;4940;50.900;4.672;2022-10-31T06:32:45;20.15;;;10.43;;
9801;SDS011;4940;50.900;4.672;2022-10-31T06:35:12;20.80;;;10.48;;
9801;SDS011;4940;50.900;4.672;2022-10-31T06:37:39;16.50;;;10.13;;
9801;SDS011;4940;50.900;4.672;2022-10-31T06:40:09;17.23;;;10.10;;
9801;SDS011;4940;50.900;4.672;2022-10-31T06:42:36;21.42;;;10.52;;
9801;SDS011;4940;50.900;4.672;2022-10-31T06:45:04;18.20;;;10.55;;
9801;SDS011;4940;50.900;4.672;2022-10-31T06:47:31;20.00;;;10.90;;
9801;SDS011;4940;50.900;4.672;2022-10-31T06:49:59;22.15;;;10.57;;
9801;SDS011;4940;50.900;4.672;2022-10-31T06:52:26;17.15;;;10.80;;
9801;SDS011;4940;50.900;4.672;2022-10-31T06:54:53;20.75;;;11.80;;
9801;SDS011;4940;50.900;4.672;2022-10-31T06:57:22;20.55;;;10.55;;
9801;SDS011;4940;50.900;4.672;2022-10-31T06:59:49;19.15;;;10.52;;
9801;SDS011;4940;50.900;4.672;2022-10-31T07:02:16;20.90;;;11.00;;
9801;SDS011;4940;50.900;4.672;2022-10-31T07:04:44;17.38;;;10.45;;
9801;SDS011;4940;50.900;4.672;2022-10-31T07:07:11;21.52;;;10.80;;
9801;SDS011;4940;50.900;4.672;2022-10-31T07:09:38;22.30;;;11.73;;
9801;SDS011;4940;50.900;4.672;2022-10-31T07:12:06;22.88;;;11.38;;
9801;SDS011;4940;50.900;4.672;2022-10-31T07:14:34;23.60;;;10.88;;
9801;SDS011;4940;50.900;4.672;2022-10-31T07:17:02;23.05;;;10.57;;
9801;SDS011;4940;50.900;4.672;2022-10-31T07:19:29;20.92;;;11.10;;
9801;SDS011;4940;50.900;4.672;2022-10-31T07:21:56;20.38;;;11.55;;
9801;SDS011;4940;50.900;4.672;2022-10-31T07:24:24;22.58;;;11.80;;
9801;SDS011;4940;50.900;4.672;2022-10-31T07:26:51;20.25;;;11.68;;
9801;SDS011;4940;50.900;4.672;2022-10-31T07:29:18;25.05;;;12.80;;
9801;SDS011;4940;50.900;4.672;2022-10-31T07:31:47;22.85;;;11.70;;
9801;SDS011;4940;50.900;4.672;2022-10-31T07:34:14;23.17;;;12.02;;
9801;SDS011;4940;50.900;4.672;2022-10-31T07:36:41;21.13;;;11.55;;
9801;SDS011;4940;50.900;4.672;2022-10-31T07:39:09;29.52;;;12.27;;
9801;SDS011;4940;50.900;4.672;2022-10-31T07:41:36;28.95;;;12.98;;
9801;SDS011;4940;50.900;4.672;2022-10-31T07:44:04;19.27;;;11.45;;
9801;SDS011;4940;50.900;4.672;2022-10-31T07:46:31;26.92;;;12.25;;
9801;SDS011;4940;50.900;4.672;2022-10-31T07:49:00;25.42;;;12.20;;
9801;SDS011;4940;50.900;4.672;2022-10-31T07:51:27;23.05;;;11.82;;
9801;SDS011;4940;50.900;4.672;2022-10-31T07:53:54;23.77;;;12.20;;
9801;SDS011;4940;50.900;4.672;2022-10-31T07:56:22;21.70;;;11.77;;
9801;SDS011;4940;50.900;4.672;2022-10-31T07:58:49;24.65;;;11.43;;
9801;SDS011;4940;50.900;4.672;2022-10-31T08:01:16;26.35;;;12.45;;
9801;SDS011;4940;50.900;4.672;2022-10-31T08:03:44;22.85;;;11.45;;
9801;SDS011;4940;50.900;4.672;2022-10-31T08:06:12;23.85;;;11.10;;
9801;SDS011;4940;50.900;4.672;2022-10-31T08:08:39;19.80;;;11.10;;
9801;SDS011;4940;50.900;4.672;2022-10-31T08:11:07;19.05;;;11.48;;
9801;SDS011;4940;50.900;4.672;2022-10-31T08:13:34;24.48;;;12.15;;
9801;SDS011;4940;50.900;4.672;2022-10-31T08:16:01;23.67;;;11.68;;
9801;SDS011;4940;50.900;4.672;2022-10-31T08:18:30;19.45;;;11.40;;
9801;SDS011;4940;50.900;4.672;2022-10-31T08:20:57;23.73;;;11.18;;
9801;SDS011;4940;50.900;4.672;2022-10-31T08:23:25;21.10;;;11.68;;
9801;SDS011;4940;50.900;4.672;2022-10-31T08:25:53;22.02;;;12.05;;
9801;SDS011;4940;50.900;4.672;2022-10-31T08:28:20;20.20;;;11.00;;
9801;SDS011;4940;50.900;4.672;2022-10-31T08:30:48;22.35;;;12.02;;
9801;SDS011;4940;50.900;4.672;2022-10-31T08:33:15;21.02;;;11.25;;
9801;SDS011;4940;50.900;4.672;2022-10-31T08:35:43;22.35;;;11.15;;
9801;SDS011;4940;50.900;4.672;2022-10-31T08:38:11;18.95;;;10.68;;
9801;SDS011;4940;50.900;4.672;2022-10-31T08:40:40;23.35;;;10.75;;
9801;SDS011;4940;50.900;4.672;2022-10-31T08:43:11;18.73;;;11.35;;
9801;SDS011;4940;50.900;4.672;2022-10-31T08:45:39;20.00;;;11.32;;
9801;SDS011;4940;50.900;4.672;2022-10-31T08:48:09;19.65;;;11.10;;
9801;SDS011;4940;50.900;4.672;2022-10-31T08:50:37;20.13;;;11.07;;
9801;SDS011;4940;50.900;4.672;2022-10-31T08:53:06;18.48;;;11.35;;
9801;SDS011;4940;50.900;4.672;2022-10-31T08:55:35;19.98;;;10.98;;
9801;SDS011;4940;50.900;4.672;2022-10-31T08:58:05;16.20;;;10.20;;
9801;SDS011;4940;50.900;4.672;2022-10-31T09:00:33;21.85;;;11.15;;
9801;SDS011;4940;50.900;4.672;2022-10-31T09:03:01;24.42;;;11.50;;
9801;SDS011;4940;50.900;4.672;2022-10-31T09:05:30;20.40;;;11.02;;
9801;SDS011;4940;50.900;4.672;2022-10-31T09:07:58;21.55;;;9.70;;
9801;SDS011;4940;50.900;4.672;2022-10-31T09:10:27;19.48;;;10.68;;
9801;SDS011;4940;50.900;4.672;2022-10-31T09:12:54;20.52;;;10.57;;
9801;SDS011;4940;50.900;4.672;2022-10-31T09:15:24;20.50;;;10.27;;
9801;SDS011;4940;50.900;4.672;2022-10-31T09:17:51;19.60;;;10.75;;
9801;SDS011;4940;50.900;4.672;2022-10-31T09:20:19;19.00;;;10.63;;
9801;SDS011;4940;50.900;4.672;2022-10-31T09:22:46;19.08;;;11.00;;
9801;SDS011;4940;50.900;4.672;2022-10-31T09:25:14;18.42;;;10.38;;
9801;SDS011;4940;50.900;4.672;2022-10-31T09:27:41;18.95;;;10.93;;
9801;SDS011;4940;50.900;4.672;2022-10-31T09:30:09;17.48;;;11.20;;
9801;SDS011;4940;50.900;4.672;2022-10-31T09:32:37;23.50;;;11.20;;
9801;SDS011;4940;50.900;4.672;2022-10-31T09:35:05;25.60;;;12.48;;
9801;SDS011;4940;50.900;4.672;2022-10-31T09:37:33;25.13;;;11.32;;
9801;SDS011;4940;50.900;4.672;2022-10-31T09:40:00;18.20;;;10.65;;
9801;SDS011;4940;50.900;4.672;2022-10-31T09:42:31;20.95;;;11.20;;
9801;SDS011;4940;50.900;4.672;2022-10-31T09:45:15;25.08;;;11.55;;
9801;SDS011;4940;50.900;4.672;2022-10-31T09:47:52;19.30;;;11.05;;
9801;SDS011;4940;50.900;4.672;2022-10-31T09:50:30;21.52;;;10.65;;
9801;SDS011;4940;50.900;4.672;2022-10-31T09:53:05;18.52;;;10.73;;
9801;SDS011;4940;50.900;4.672;2022-10-31T09:55:39;18.58;;;11.25;;
9801;SDS011;4940;50.900;4.672;2022-10-31T09:58:08;17.42;;;10.75;;
9801;SDS011;4940;50.900;4.672;2022-10-31T10:00:42;21.05;;;11.23;;
9801;SDS011;4940;50.900;4.672;2022-10-31T10:03:15;26.88;;;12.02;;
9801;SDS011;4940;50.900;4.672;2022-10-31T10:05:51;20.17;;;12.35;;
9801;SDS011;4940;50.900;4.672;2022-10-31T10:08:24;16.88;;;11.80;;
9801;SDS011;4940;50.900;4.672;2022-10-31T10:10:55;18.30;;;11.13;;
9801;SDS011;4940;50.900;4.672;2022-10-31T10:13:32;20.45;;;11.65;;
9801;SDS011;4940;50.900;4.672;2022-10-31T10:16:20;19.63;;;11.80;;
9801;SDS011;4940;50.900;4.672;2022-10-31T10:19:02;20.38;;;11.60;;
9801;SDS011;4940;50.900;4.672;2022-10-31T10:21:40;19.08;;;11.80;;
9801;SDS011;4940;50.900;4.672;2022-10-31T10:24:25;24.92;;;11.98;;
9801;SDS011;4940;50.900;4.672;2022-10-31T10:27:12;17.20;;;11.02;;
9801;SDS011;4940;50.900;4.672;2022-10-31T10:29:45;22.45;;;11.27;;
9801;SDS011;4940;50.900;4.672;2022-10-31T10:32:17;21.50;;;10.93;;
9801;SDS011;4940;50.900;4.672;2022-10-31T10:34:50;17.98;;;10.82;;
9801;SDS011;4940;50.900;4.672;2022-10-31T10:37:23;18.50;;;10.68;;
9801;SDS011;4940;50.900;4.672;2022-10-31T10:39:55;21.33;;;11.13;;
9801;SDS011;4940;50.900;4.672;2022-10-31T10:42:26;18.10;;;10.52;;
9801;SDS011;4940;50.900;4.672;2022-10-31T10:45:15;15.65;;;10.10;;
9801;SDS011;4940;50.900;4.672;2022-10-31T10:48:05;18.13;;;10.38;;
9801;SDS011;4940;50.900;4.672;2022-10-31T10:50:39;20.00;;;10.38;;
9801;SDS011;4940;50.900;4.672;2022-10-31T10:53:13;18.50;;;9.52;;
9801;SDS011;4940;50.900;4.672;2022-10-31T10:55:58;16.30;;;9.18;;
9801;SDS011;4940;50.900;4.672;2022-10-31T10:58:32;15.75;;;9.13;;
9801;SDS011;4940;50.900;4.672;2022-10-31T11:01:08;17.63;;;9.57;;
9801;SDS011;4940;50.900;4.672;2022-10-31T11:03:37;16.13;;;9.38;;
9801;SDS011;4940;50.900;4.672;2022-10-31T11:06:15;19.30;;;9.70;;
9801;SDS011;4940;50.900;4.672;2022-10-31T11:08:47;17.17;;;8.80;;
9801;SDS011;4940;50.900;4.672;2022-10-31T11:11:19;14.48;;;8.27;;
9801;SDS011;4940;50.900;4.672;2022-10-31T11:13:57;17.42;;;8.07;;
9801;SDS011;4940;50.900;4.672;2022-10-31T11:16:30;17.38;;;8.70;;
9801;SDS011;4940;50.900;4.672;2022-10-31T11:19:07;15.68;;;7.88;;
9801;SDS011;4940;50.900;4.672;2022-10-31T11:21:42;10.93;;;6.97;;
9801;SDS011;4940;50.900;4.672;2022-10-31T11:24:14;15.68;;;7.55;;
9801;SDS011;4940;50.900;4.672;2022-10-31T11:26:43;13.38;;;6.63;;
9801;SDS011;4940;50.900;4.672;2022-10-31T11:29:13;12.40;;;6.55;;
9801;SDS011;4940;50.900;4.672;2022-10-31T11:31:41;14.63;;;6.75;;
9801;SDS011;4940;50.900;4.672;2022-10-31T11:34:15;13.95;;;6.28;;
9801;SDS011;4940;50.900;4.672;2022-10-31T11:36:50;10.73;;;6.70;;
9801;SDS011;4940;50.900;4.672;2022-10-31T11:39:19;9.07;;;5.57;;
9801;SDS011;4940;50.900;4.672;2022-10-31T11:41:50;11.07;;;6.60;;
9801;SDS011;4940;50.900;4.672;2022-10-31T11:44:20;17.08;;;5.97;;
9801;SDS011;4940;50.900;4.672;2022-10-31T11:46:49;10.98;;;5.70;;
9801;SDS011;4940;50.900;4.672;2022-10-31T11:49:18;10.00;;;5.72;;
9801;SDS011;4940;50.900;4.672;2022-10-31T11:51:47;10.35;;;5.55;;
9801;SDS011;4940;50.900;4.672;2022-10-31T11:54:20;9.32;;;5.68;;
9801;SDS011;4940;50.900;4.672;2022-10-31T11:56:51;10.35;;;5.40;;
9801;SDS011;4940;50.900;4.672;2022-10-31T11:59:21;15.23;;;6.00;;
9801;SDS011;4940;50.900;4.672;2022-10-31T12:01:51;10.63;;;5.47;;
9801;SDS011;4940;50.900;4.672;2022-10-31T12:04:19;15.70;;;6.47;;
9801;SDS011;4940;50.900;4.672;2022-10-31T12:06:56;11.00;;;5.75;;
9801;SDS011;4940;50.900;4.672;2022-10-31T12:09:24;12.27;;;5.80;;
9801;SDS011;4940;50.900;4.672;2022-10-31T12:14:54;9.95;;;5.50;;
9801;SDS011;4940;50.900;4.672;2022-10-31T12:17:31;10.65;;;5.57;;
9801;SDS011;4940;50.900;4.672;2022-10-31T12:20:07;13.82;;;6.47;;
9801;SDS011;4940;50.900;4.672;2022-10-31T12:22:47;8.13;;;5.95;;
9801;SDS011;4940;50.900;4.672;2022-10-31T12:25:24;16.30;;;5.90;;
9801;SDS011;4940;50.900;4.672;2022-10-31T12:28:08;12.57;;;6.07;;
9801;SDS011;4940;50.900;4.672;2022-10-31T12:30:58;12.73;;;5.63;;
9801;SDS011;4940;50.900;4.672;2022-10-31T12:33:47;12.18;;;6.00;;
9801;SDS011;4940;50.900;4.672;2022-10-31T12:36:32;10.25;;;6.13;;
9801;SDS011;4940;50.900;4.672;2022-10-31T12:39:16;11.57;;;5.57;;
9801;SDS011;4940;50.900;4.672;2022-10-31T12:41:51;15.05;;;6.50;;
9801;SDS011;4940;50.900;4.672;2022-10-31T12:44:30;9.25;;;5.60;;
9801;SDS011;4940;50.900;4.672;2022-10-31T12:50:22;9.10;;;5.57;;
9801;SDS011;4940;50.900;4.672;2022-10-31T12:53:02;12.50;;;5.15;;
9801;SDS011;4940;50.900;4.672;2022-10-31T12:55:48;18.83;;;6.10;;
9801;SDS011;4940;50.900;4.672;2022-10-31T12:58:26;8.43;;;5.20;;
9801;SDS011;4940;50.900;4.672;2022-10-31T13:01:01;14.45;;;5.93;;
9801;SDS011;4940;50.900;4.672;2022-10-31T13:03:36;9.32;;;5.18;;
9801;SDS011;4940;50.900;4.672;2022-10-31T13:06:13;12.48;;;5.43;;
9801;SDS011;4940;50.900;4.672;2022-10-31T13:08:44;10.30;;;4.90;;
9801;SDS011;4940;50.900;4.672;2022-10-31T13:11:18;12.02;;;5.18;;
9801;SDS011;4940;50.900;4.672;2022-10-31T13:13:52;8.02;;;4.72;;
9801;SDS011;4940;50.900;4.672;2022-10-31T13:16:25;10.90;;;4.75;;
9801;SDS011;4940;50.900;4.672;2022-10-31T13:18:57;9.68;;;4.65;;
9801;SDS011;4940;50.900;4.672;2022-10-31T13:21:29;10.30;;;4.40;;
9801;SDS011;4940;50.900;4.672;2022-10-31T13:24:01;9.55;;;4.43;;
9801;SDS011;4940;50.900;4.672;2022-10-31T13:26:37;15.20;;;4.35;;
9801;SDS011;4940;50.900;4.672;2022-10-31T13:29:11;11.30;;;4.15;;
9801;SDS011;4940;50.900;4.672;2022-10-31T13:31:44;12.20;;;5.10;;
9801;SDS011;4940;50.900;4.672;2022-10-31T13:34:16;7.03;;;4.40;;
9801;SDS011;4940;50.900;4.672;2022-10-31T13:36:53;7.63;;;4.32;;
9801;SDS011;4940;50.900;4.672;2022-10-31T13:39:30;14.02;;;4.30;;
9801;SDS011;4940;50.900;4.672;2022-10-31T13:42:15;10.05;;;4.70;;
9801;SDS011;4940;50.900;4.672;2022-10-31T13:44:48;7.85;;;4.13;;
9801;SDS011;4940;50.900;4.672;2022-10-31T13:47:23;16.27;;;5.32;;
9801;SDS011;4940;50.900;4.672;2022-10-31T13:50:02;15.32;;;4.93;;
9801;SDS011;4940;50.900;4.672;2022-10-31T13:52:30;13.23;;;4.95;;
9801;SDS011;4940;50.900;4.672;2022-10-31T13:54:57;9.68;;;4.68;;
9801;SDS011;4940;50.900;4.672;2022-10-31T13:57:33;13.77;;;5.38;;
9801;SDS011;4940;50.900;4.672;2022-10-31T14:00:05;12.73;;;4.68;;
9801;SDS011;4940;50.900;4.672;2022-10-31T14:02:49;11.18;;;5.65;;
9801;SDS011;4940;50.900;4.672;2022-10-31T14:05:21;10.48;;;6.03;;
9801;SDS011;4940;50.900;4.672;2022-10-31T14:07:51;11.57;;;5.68;;
9801;SDS011;4940;50.900;4.672;2022-10-31T14:10:21;8.50;;;5.45;;
9801;SDS011;4940;50.900;4.672;2022-10-31T14:12:53;15.23;;;5.70;;
9801;SDS011;4940;50.900;4.672;2022-10-31T14:15:29;12.18;;;5.32;;
9801;SDS011;4940;50.900;4.672;2022-10-31T14:17:56;10.52;;;5.40;;
9801;SDS011;4940;50.900;4.672;2022-10-31T14:20:31;11.75;;;5.80;;
9801;SDS011;4940;50.900;4.672;2022-10-31T14:23:10;11.85;;;5.65;;
9801;SDS011;4940;50.900;4.672;2022-10-31T14:26:17;12.05;;;5.35;;
9801;SDS011;4940;50.900;4.672;2022-10-31T14:28:59;10.60;;;5.72;;
9801;SDS011;4940;50.900;4.672;2022-10-31T14:31:29;13.77;;;5.72;;
9801;SDS011;4940;50.900;4.672;2022-10-31T14:34:02;13.40;;;5.70;;
9801;SDS011;4940;50.900;4.672;2022-10-31T14:36:31;8.70;;;5.55;;
9801;SDS011;4940;50.900;4.672;2022-10-31T14:39:08;14.48;;;5.60;;
9801;SDS011;4940;50.900;4.672;2022-10-31T14:41:54;11.25;;;6.60;;
9801;SDS011;4940;50.900;4.672;2022-10-31T14:47:25;15.13;;;6.72;;
9801;SDS011;4940;50.900;4.672;2022-10-31T14:52:56;13.98;;;6.20;;
9801;SDS011;4940;50.900;4.672;2022-10-31T14:55:26;15.77;;;7.78;;
9801;SDS011;4940;50.900;4.672;2022-10-31T14:57:55;11.20;;;6.20;;
9801;SDS011;4940;50.900;4.672;2022-10-31T15:00:27;20.55;;;7.50;;
9801;SDS011;4940;50.900;4.672;2022-10-31T15:03:00;18.88;;;7.45;;
9801;SDS011;4940;50.900;4.672;2022-10-31T15:05:32;12.63;;;7.53;;
9801;SDS011;4940;50.900;4.672;2022-10-31T15:08:12;14.18;;;7.78;;
9801;SDS011;4940;50.900;4.672;2022-10-31T15:10:52;14.20;;;6.82;;
9801;SDS011;4940;50.900;4.672;2022-10-31T15:13:20;12.77;;;7.32;;
9801;SDS011;4940;50.900;4.672;2022-10-31T15:15:49;15.68;;;7.25;;
9801;SDS011;4940;50.900;4.672;2022-10-31T15:18:20;15.65;;;7.40;;
9801;SDS011;4940;50.900;4.672;2022-10-31T15:20:49;13.68;;;7.53;;
9801;SDS011;4940;50.900;4.672;2022-10-31T15:23:20;13.38;;;7.90;;
9801;SDS011;4940;50.900;4.672;2022-10-31T15:25:50;16.25;;;7.63;;
9801;SDS011;4940;50.900;4.672;2022-10-31T15:28:24;11.55;;;7.22;;
9801;SDS011;4940;50.900;4.672;2022-10-31T15:30:54;15.77;;;7.90;;